Time;durP1;ratioP1;P1;durP2;ratioP2;P2;SDS_P1;SDS_P2;PMS_P1;PMS_P2;Temp;Humidity;BMP_temperature;BMP_pressure;BME280_temperature;BME280_humidity;BME280_pressure;Samples;Min_cycle;Max_cycle;Signal;HPM_P1;HPM_P2
2024/04/15 00:00:46;;;;;;;;;3.75;1.00;;;;;15.73;47.93;101652.53;5452172;25;66172;-76
2024/04/15 00:03:12;;;;;;;;;2.25;1.00;;;;;15.71;47.73;101653.72;5449685;26;70165;-73
2024/04/15 00:05:38;;;;;;;;;1.00;1.00;;;;;15.62;48.04;101644.22;5447683;26;63239;-73
2024/04/15 00:08:04;;;;;;;;;1.00;1.00;;;;;15.60;47.20;101644.41;5456130;26;44675;-75
2024/04/15 00:10:29;;;;;;;;;1.00;1.00;;;;;15.57;48.00;101647.50;5451073;26;50606;-79
2024/04/15 00:12:55;;;;;;;;;2.00;0.75;;;;;15.55;48.16;101639.66;5451041;26;60545;-77
2024/04/15 00:15:20;;;;;;;;;1.00;0.00;;;;;15.49;47.68;101627.06;5452556;25;63602;-75
2024/04/15 00:17:45;;;;;;;;;4.25;1.00;;;;;15.48;47.35;101641.44;5451787;26;44024;-78
2024/04/15 00:20:11;;;;;;;;;2.00;1.00;;;;;15.43;48.06;101627.84;5440237;26;60570;-85
2024/04/15 00:22:36;;;;;;;;;1.00;1.00;;;;;15.38;47.07;101623.09;5446092;26;68088;-82
2024/04/15 00:25:02;;;;;;;;;3.00;1.00;;;;;15.34;47.32;101629.03;5439883;26;74248;-80
2024/04/15 00:27:27;;;;;;;;;2.75;2.00;;;;;15.34;47.31;101635.19;5444814;26;44050;-83
2024/04/15 00:29:52;;;;;;;;;1.25;1.00;;;;;15.32;47.88;101628.41;5439514;25;58832;-84
2024/04/15 00:32:18;;;;;;;;;4.00;1.00;;;;;15.27;47.60;101635.16;5455265;25;69768;-86
2024/04/15 00:34:43;;;;;;;;;1.00;1.00;;;;;15.27;47.67;101639.66;5451378;26;44662;-76
2024/04/15 00:37:09;;;;;;;;;1.00;1.00;;;;;15.24;48.50;101635.53;5433206;26;57434;-84
2024/04/15 00:39:35;;;;;;;;;1.25;1.00;;;;;15.21;48.27;101632.41;5445329;26;66928;-88
2024/04/15 00:42:00;;;;;;;;;1.25;0.00;;;;;15.13;47.48;101620.00;5447274;26;44084;-83
2024/04/15 00:44:33;;;;;;;;;1.00;1.00;;;;;15.10;47.74;101629.25;5450592;25;70944;-76
2024/04/15 00:46:58;;;;;;;;;3.00;1.00;;;;;15.06;47.73;101617.31;5449320;26;44470;-84
2024/04/15 00:49:24;;;;;;;;;3.25;1.00;;;;;15.02;47.77;101614.19;5446474;25;67259;-78
2024/04/15 00:51:49;;;;;;;;;0.75;0.75;;;;;14.98;48.51;101610.25;5441485;26;46864;-77
2024/04/15 00:54:14;;;;;;;;;3.25;1.75;;;;;14.97;48.31;101616.59;5442355;26;65896;-84
2024/04/15 00:56:40;;;;;;;;;1.75;0.00;;;;;14.97;47.87;101615.78;5442593;26;70083;-77
2024/04/15 00:59:05;;;;;;;;;1.50;0.00;;;;;14.95;47.70;101610.63;5449522;25;61309;-76
2024/04/15 01:01:30;;;;;;;;;0.50;0.50;;;;;14.89;47.80;101599.91;5409054;26;68567;-74
2024/04/15 01:03:56;;;;;;;;;1.75;0.75;;;;;14.90;48.10;101599.69;5446051;26;70218;-86
2024/04/15 01:06:21;;;;;;;;;1.25;1.00;;;;;14.86;47.79;101591.28;5450818;25;43891;-78
2024/04/15 01:08:47;;;;;;;;;4.00;1.25;;;;;14.84;47.62;101581.78;5454965;25;49174;-82
2024/04/15 01:11:12;;;;;;;;;1.50;0.50;;;;;14.86;47.51;101591.28;5451679;26;64274;-78
2024/04/15 01:13:38;;;;;;;;;0.50;0.00;;;;;14.87;48.20;101592.06;5452816;25;44122;-75
2024/04/15 01:16:03;;;;;;;;;2.00;1.00;;;;;14.85;47.46;101589.63;5446050;26;68581;-73
2024/04/15 01:18:29;;;;;;;;;2.25;1.00;;;;;14.83;48.22;101582.81;5452719;25;66034;-78
2024/04/15 01:20:56;;;;;;;;;1.00;1.00;;;;;14.81;47.27;101585.69;5447729;26;48576;-78
2024/04/15 01:23:22;;;;;;;;;1.25;1.00;;;;;14.74;48.28;101576.75;5450867;26;44748;-84
2024/04/15 01:25:47;;;;;;;;;2.00;0.75;;;;;14.76;47.69;101588.06;5419968;26;44160;-79
2024/04/15 01:28:13;;;;;;;;;3.00;3.00;;;;;14.74;47.92;101586.63;5450280;25;64953;-79
2024/04/15 01:30:38;;;;;;;;;2.25;1.75;;;;;14.68;47.54;101581.00;5453866;26;43944;-73
2024/04/15 01:33:04;;;;;;;;;1.25;1.00;;;;;14.65;47.71;101586.72;5413291;26;53920;-74
2024/04/15 01:35:29;;;;;;;;;0.75;0.75;;;;;14.58;47.70;101588.50;5436689;26;44045;-82
2024/04/15 01:37:55;;;;;;;;;3.00;1.25;;;;;14.51;47.90;101577.75;5448559;25;59210;-78
2024/04/15 01:40:20;;;;;;;;;2.00;1.00;;;;;14.47;47.68;101567.66;5447213;26;44497;-74
2024/04/15 01:42:45;;;;;;;;;4.00;1.00;;;;;14.39;47.56;101573.94;5451496;25;68186;-80
2024/04/15 01:45:11;;;;;;;;;0.75;0.75;;;;;14.39;47.63;101577.44;5447987;26;63812;-74
2024/04/15 01:47:36;;;;;;;;;4.00;1.00;;;;;14.39;48.06;101579.28;5450836;26;49659;-74
2024/04/15 01:50:02;;;;;;;;;4.00;1.00;;;;;14.35;47.84;101581.47;5444009;25;44044;-74
2024/04/15 01:52:27;;;;;;;;;4.00;1.00;;;;;14.26;47.35;101575.47;5450367;26;44296;-73
2024/04/15 01:54:52;;;;;;;;;2.50;0.00;;;;;14.21;47.69;101577.03;5451236;26;62870;-75
2024/04/15 01:57:18;;;;;;;;;2.75;0.00;;;;;14.14;47.92;101575.09;5448605;26;64489;-74
2024/04/15 01:59:43;;;;;;;;;2.50;1.00;;;;;14.04;47.87;101579.91;5452799;25;66246;-74
2024/04/15 02:02:08;;;;;;;;;1.75;1.00;;;;;14.00;48.20;101575.97;5451645;26;67442;-77
2024/04/15 02:04:34;;;;;;;;;0.75;0.75;;;;;13.96;48.32;101582.69;5452359;26;69958;-75
2024/04/15 02:06:59;;;;;;;;;2.00;1.00;;;;;13.90;48.54;101578.91;5451257;26;44682;-74
2024/04/15 02:09:25;;;;;;;;;1.50;0.00;;;;;13.88;48.68;101585.47;5450980;26;46482;-76
2024/04/15 02:11:50;;;;;;;;;1.00;1.00;;;;;13.85;48.49;101578.66;5453741;26;59785;-74
2024/04/15 02:14:15;;;;;;;;;3.00;2.00;;;;;13.81;48.79;101570.22;5453873;25;45938;-79
2024/04/15 02:16:41;;;;;;;;;1.00;1.00;;;;;13.80;49.14;101567.72;5448745;26;63025;-77
2024/04/15 02:19:06;;;;;;;;;1.25;1.00;;;;;13.79;49.55;101560.75;5421709;26;44060;-74
2024/04/15 02:21:31;;;;;;;;;1.50;0.75;;;;;13.79;49.46;101558.91;5453176;25;70719;-74
2024/04/15 02:23:57;;;;;;;;;2.00;1.00;;;;;13.75;49.56;101551.47;5455384;25;69615;-73
2024/04/15 02:26:22;;;;;;;;;0.00;0.00;;;;;13.75;49.62;101546.13;5448422;26;44035;-75
2024/04/15 02:28:48;;;;;;;;;2.25;1.75;;;;;13.74;50.06;101542.66;5456824;25;62799;-74
2024/04/15 02:31:13;;;;;;;;;1.75;1.75;;;;;13.75;49.81;101538.13;5455098;25;73227;-77
2024/04/15 02:33:38;;;;;;;;;3.00;2.00;;;;;13.72;49.90;101539.34;5447072;25;43884;-75
2024/04/15 02:36:04;;;;;;;;;3.75;1.00;;;;;13.76;50.09;101542.47;5455364;26;57191;-74
2024/04/15 02:38:29;;;;;;;;;2.00;2.00;;;;;13.70;50.26;101530.72;5452089;26;44287;-73
2024/04/15 02:40:55;;;;;;;;;3.25;1.25;;;;;13.70;50.04;101518.22;5452978;26;72478;-74
2024/04/15 02:43:20;;;;;;;;;3.00;0.75;;;;;13.70;50.18;101523.53;5450092;25;43968;-74
2024/04/15 02:45:47;;;;;;;;;1.00;1.00;;;;;13.58;51.21;101517.03;5451104;26;44285;-75
2024/04/15 02:48:16;;;;;;;;;2.50;0.50;;;;;13.67;50.66;101531.91;5455316;25;44037;-74
2024/04/15 02:50:41;;;;;;;;;4.75;2.25;;;;;13.59;50.91;101532.00;5446112;26;46095;-78
2024/04/15 02:53:06;;;;;;;;;1.00;1.00;;;;;13.58;51.12;101533.00;5452760;25;65343;-76
2024/04/15 02:55:32;;;;;;;;;2.00;0.25;;;;;13.56;51.07;101533.19;5450346;26;51778;-74
2024/04/15 02:57:57;;;;;;;;;5.00;1.00;;;;;13.52;51.00;101537.22;5453676;26;44036;-75
2024/04/15 03:00:24;;;;;;;;;2.25;1.00;;;;;13.47;51.67;101523.66;5447421;25;45870;-74
2024/04/15 03:02:50;;;;;;;;;2.25;1.00;;;;;13.53;51.32;101524.75;5452948;25;43980;-74
2024/04/15 03:05:15;;;;;;;;;3.00;1.00;;;;;13.50;51.78;101527.78;5449909;25;44108;-75
2024/04/15 03:07:41;;;;;;;;;1.00;1.00;;;;;13.47;51.61;101531.63;5417030;26;45215;-73
2024/04/15 03:10:06;;;;;;;;;2.00;0.00;;;;;13.47;51.63;101536.97;5450185;26;54551;-82
2024/04/15 03:12:32;;;;;;;;;1.75;1.75;;;;;13.45;52.18;101540.84;5453692;25;44051;-74
2024/04/15 03:14:57;;;;;;;;;3.75;1.75;;;;;13.44;52.09;101540.00;5452173;25;44529;-76
2024/04/15 03:17:22;;;;;;;;;3.75;0.25;;;;;13.32;51.88;101531.63;5452068;25;69869;-74
2024/04/15 03:19:52;;;;;;;;;2.25;0.50;;;;;13.33;52.69;101533.28;5453730;25;60626;-84
2024/04/15 03:22:17;;;;;;;;;2.00;1.00;;;;;13.29;52.27;101541.81;5451833;26;44819;-86
2024/04/15 03:24:42;;;;;;;;;1.75;1.00;;;;;13.27;52.13;101536.66;5450620;26;67521;-74
2024/04/15 03:27:08;;;;;;;;;2.75;2.00;;;;;13.20;53.08;101528.56;5453098;25;62935;-76
2024/04/15 03:29:33;;;;;;;;;7.00;1.75;;;;;13.16;52.41;101521.13;5451433;25;71862;-82
2024/04/15 03:31:58;;;;;;;;;2.00;1.25;;;;;13.13;52.60;101527.66;5451862;25;68016;-76
2024/04/15 03:34:24;;;;;;;;;1.50;0.75;;;;;13.08;53.08;101525.53;5451530;26;44328;-75
2024/04/15 03:36:49;;;;;;;;;3.00;1.00;;;;;13.00;53.25;101522.94;5454527;25;46614;-73
2024/04/15 03:39:15;;;;;;;;;3.00;0.25;;;;;12.97;54.02;101529.47;5421315;26;44183;-81
2024/04/15 03:41:40;;;;;;;;;2.50;1.00;;;;;12.91;53.05;101530.19;5453688;25;43974;-80
2024/04/15 03:44:05;;;;;;;;;3.00;2.00;;;;;12.83;53.06;101520.44;5439202;25;64802;-79
2024/04/15 03:46:31;;;;;;;;;6.00;1.00;;;;;12.77;54.02;101517.66;5448689;25;67405;-80
2024/04/15 03:48:56;;;;;;;;;3.75;2.75;;;;;12.75;54.32;101517.00;5451525;26;69411;-88
2024/04/15 03:51:22;;;;;;;;;6.00;2.00;;;;;12.68;54.60;101512.41;5452872;26;43966;-88
2024/04/15 03:53:47;;;;;;;;;2.00;2.00;;;;;12.65;53.96;101511.97;5452163;25;66577;-88
2024/04/15 03:56:12;;;;;;;;;5.00;2.00;;;;;12.63;53.60;101516.63;5450704;26;67880;-87
2024/04/15 03:58:38;;;;;;;;;2.50;1.25;;;;;12.63;54.26;101503.34;5443902;26;69993;-85
2024/04/15 04:01:03;;;;;;;;;2.50;0.50;;;;;12.61;53.97;101497.38;5451419;25;62513;-82
2024/04/15 04:03:28;;;;;;;;;1.75;1.00;;;;;12.60;54.86;101501.03;5440975;26;65551;-87
2024/04/15 04:05:54;;;;;;;;;2.00;1.00;;;;;12.54;54.32;101498.09;5451645;25;65390;-75
2024/04/15 04:08:20;;;;;;;;;1.00;1.00;;;;;12.53;54.33;101491.13;5448982;26;44631;-73
2024/04/15 04:10:45;;;;;;;;;5.50;2.00;;;;;12.49;54.12;101499.63;5418816;26;44066;-77
2024/04/15 04:13:11;;;;;;;;;2.00;1.00;;;;;12.46;54.50;101484.00;5448677;25;44058;-74
2024/04/15 04:15:44;;;;;;;;;4.25;1.00;;;;;12.37;54.79;101472.59;5450771;25;44020;-78
2024/04/15 04:18:09;;;;;;;;;1.75;1.00;;;;;12.35;55.53;101491.41;5451308;26;44789;-87
2024/04/15 04:20:35;;;;;;;;;5.75;1.75;;;;;12.28;55.89;101490.47;5451910;26;44114;-89
2024/04/15 04:23:00;;;;;;;;;2.75;1.00;;;;;12.25;54.32;101486.31;5451256;25;66824;-87
2024/04/15 04:25:25;;;;;;;;;3.50;1.50;;;;;12.20;55.64;101478.03;5444464;26;44090;-87
2024/04/15 04:27:51;;;;;;;;;1.50;1.00;;;;;12.21;56.04;101486.88;5451432;25;72614;-77
2024/04/15 04:30:16;;;;;;;;;3.50;1.50;;;;;12.18;55.67;101500.50;5452579;25;44026;-88
2024/04/15 04:32:42;;;;;;;;;3.25;1.00;;;;;12.11;55.73;101500.38;5449452;26;65002;-79
2024/04/15 04:35:09;;;;;;;;;2.00;1.00;;;;;12.06;55.74;101502.72;5445097;26;44064;-81
2024/04/15 04:37:34;;;;;;;;;0.25;0.25;;;;;12.06;55.74;101497.41;5450021;26;44832;-83
2024/04/15 04:39:59;;;;;;;;;6.00;0.25;;;;;12.05;55.21;101485.13;5451040;25;46479;-78
2024/04/15 04:42:25;;;;;;;;;6.25;1.75;;;;;11.98;56.25;101477.00;5450156;25;47536;-78
2024/04/15 04:44:54;;;;;;;;;5.25;1.00;;;;;11.98;56.07;101484.97;5448699;25;70682;-77
2024/04/15 04:47:20;;;;;;;;;4.00;1.00;;;;;11.91;55.84;101470.72;5450316;26;44956;-77
2024/04/15 04:49:48;;;;;;;;;2.75;1.00;;;;;11.90;55.38;101464.59;5447822;25;48684;-75
2024/04/15 04:52:13;;;;;;;;;2.50;1.00;;;;;11.82;55.71;101462.81;5452138;26;44652;-75
2024/04/15 04:54:38;;;;;;;;;1.50;0.75;;;;;11.82;55.73;101462.81;5453203;25;63969;-79
2024/04/15 04:57:04;;;;;;;;;2.00;0.75;;;;;11.78;55.44;101464.16;5448201;26;62472;-75
2024/04/15 04:59:30;;;;;;;;;1.25;1.00;;;;;11.79;57.04;101473.78;5450712;25;64322;-74
2024/04/15 05:01:55;;;;;;;;;3.50;1.25;;;;;11.71;55.61;101473.81;5451035;25;44028;-78
2024/04/15 05:04:20;;;;;;;;;0.75;0.75;;;;;11.70;56.43;101476.66;5450076;25;46601;-76
2024/04/15 05:06:46;;;;;;;;;2.50;1.00;;;;;11.69;56.49;101470.53;5449499;25;66600;-80
2024/04/15 05:09:11;;;;;;;;;2.50;1.00;;;;;11.63;56.58;101464.06;5448932;25;65004;-77
2024/04/15 05:11:36;;;;;;;;;2.25;1.50;;;;;11.63;56.75;101460.59;5447240;26;44511;-78
2024/04/15 05:14:02;;;;;;;;;3.00;1.75;;;;;11.51;56.46;101438.91;5450826;25;64455;-79
2024/04/15 05:16:28;;;;;;;;;1.00;1.00;;;;;11.50;56.78;101437.25;5449528;26;44565;-79
2024/04/15 05:18:53;;;;;;;;;2.00;1.00;;;;;11.49;56.27;101447.06;5414969;26;44247;-78
2024/04/15 05:21:19;;;;;;;;;2.00;1.00;;;;;11.46;56.90;101447.41;5448426;26;66032;-78
2024/04/15 05:23:44;;;;;;;;;2.00;1.00;;;;;11.43;57.53;101457.53;5449930;25;44142;-77
2024/04/15 05:26:09;;;;;;;;;2.00;1.00;;;;;11.41;56.49;101443.59;5454836;25;44012;-77
2024/04/15 05:28:35;;;;;;;;;4.00;2.00;;;;;11.32;57.09;101445.44;5451891;25;60098;-77
2024/04/15 05:31:00;;;;;;;;;0.00;0.00;;;;;11.31;57.57;101449.94;5451224;25;60268;-76
2024/04/15 05:33:26;;;;;;;;;1.00;1.00;;;;;11.29;57.26;101440.47;5448748;25;66356;-78
2024/04/15 05:35:51;;;;;;;;;4.50;1.00;;;;;11.23;57.51;101452.63;5446793;26;67758;-79
2024/04/15 05:38:16;;;;;;;;;2.00;1.00;;;;;11.23;57.31;101453.44;5451273;26;55022;-80
2024/04/15 05:40:42;;;;;;;;;5.00;1.75;;;;;11.24;57.12;101459.59;5450969;26;61270;-78
2024/04/15 05:43:07;;;;;;;;;2.50;1.00;;;;;11.21;58.12;101447.47;5449239;25;49475;-78
2024/04/15 05:45:33;;;;;;;;;1.25;1.00;;;;;11.19;57.12;101453.97;5451332;25;44322;-79
2024/04/15 05:47:59;;;;;;;;;2.50;1.00;;;;;11.19;58.07;101453.97;5473437;25;44102;-79
2024/04/15 05:50:24;;;;;;;;;1.50;1.00;;;;;11.13;58.25;101433.41;5447747;25;65356;-84
2024/04/15 05:52:49;;;;;;;;;1.00;1.00;;;;;11.15;58.59;101442.84;5453217;25;69744;-77
2024/04/15 05:55:15;;;;;;;;;7.75;1.50;;;;;11.18;57.64;101442.50;5444111;25;44942;-79
2024/04/15 05:57:40;;;;;;;;;6.25;1.00;;;;;11.21;58.15;101452.78;5453121;25;60879;-78
2024/04/15 06:00:06;;;;;;;;;2.00;1.00;;;;;11.21;58.17;101450.13;5475591;25;65005;-79
2024/04/15 06:02:31;;;;;;;;;1.25;1.00;;;;;11.22;57.90;101456.28;5451334;26;43971;-76
2024/04/15 06:04:57;;;;;;;;;1.25;1.00;;;;;11.25;57.59;101457.75;5444345;25;73888;-75
2024/04/15 06:07:22;;;;;;;;;2.00;1.00;;;;;11.20;57.75;101448.47;5446610;26;44259;-75
2024/04/15 06:09:47;;;;;;;;;3.00;1.00;;;;;11.24;57.58;101448.97;5447769;25;55145;-76
2024/04/15 06:12:13;;;;;;;;;3.00;2.00;;;;;11.25;57.86;101447.13;5445454;25;65827;-72
2024/04/15 06:14:38;;;;;;;;;3.50;1.25;;;;;11.28;57.88;101447.63;5446809;25;73319;-71
2024/04/15 06:17:04;;;;;;;;;2.75;0.50;;;;;11.30;58.08;101440.31;5451547;25;53402;-70
2024/04/15 06:19:29;;;;;;;;;4.00;1.00;;;;;11.33;57.86;101449.75;5441527;26;57467;-70
2024/04/15 06:21:55;;;;;;;;;0.75;0.00;;;;;11.34;57.21;101454.06;5452458;25;44016;-73
2024/04/15 06:24:20;;;;;;;;;1.75;0.75;;;;;11.36;57.70;101457.38;5447108;25;45823;-70
2024/04/15 06:26:46;;;;;;;;;2.00;1.00;;;;;11.38;58.07;101456.22;5448177;26;44086;-70
2024/04/15 06:29:12;;;;;;;;;0.75;0.25;;;;;11.37;57.78;101456.41;5447035;25;44012;-71
2024/04/15 06:31:37;;;;;;;;;3.25;1.00;;;;;11.34;57.11;101452.25;5449870;25;61409;-71
2024/04/15 06:34:02;;;;;;;;;2.50;1.00;;;;;11.35;58.48;101453.06;5453238;26;69017;-72
2024/04/15 06:36:28;;;;;;;;;1.00;1.00;;;;;11.46;57.27;101460.69;5450983;25;64641;-72
2024/04/15 06:38:53;;;;;;;;;0.50;0.00;;;;;11.49;58.48;101468.28;5452645;25;45563;-70
2024/04/15 06:41:19;;;;;;;;;0.50;0.50;;;;;11.52;57.58;101453.81;5442931;26;65714;-72
2024/04/15 06:43:44;;;;;;;;;1.00;1.00;;;;;11.55;58.06;101453.47;5453074;26;45681;-68
2024/04/15 06:46:09;;;;;;;;;1.00;0.00;;;;;11.57;58.35;101459.44;5450898;26;68050;-69
2024/04/15 06:48:36;;;;;;;;;5.50;0.00;;;;;11.58;57.39;101449.66;5454450;26;43923;-73
2024/04/15 06:51:01;;;;;;;;;0.25;0.00;;;;;11.59;58.28;101443.34;5449045;26;44369;-72
2024/04/15 06:53:26;;;;;;;;;2.00;0.25;;;;;11.58;58.12;101437.19;5450186;25;47832;-74
2024/04/15 06:55:52;;;;;;;;;9.00;0.75;;;;;11.56;58.12;101423.25;5448940;26;69738;-80
2024/04/15 06:58:17;;;;;;;;;3.00;1.00;;;;;11.58;58.33;101413.28;5450466;25;44574;-74
2024/04/15 07:00:43;;;;;;;;;0.75;0.75;;;;;11.64;56.43;101417.09;5451526;25;66340;-75
2024/04/15 07:03:08;;;;;;;;;3.25;1.00;;;;;11.67;56.31;101403.47;5448781;25;44011;-75
2024/04/15 07:05:34;;;;;;;;;1.00;1.00;;;;;11.71;57.17;101410.06;5450993;25;44487;-75
2024/04/15 07:08:01;;;;;;;;;2.25;0.00;;;;;11.76;57.55;101414.88;5449645;25;43951;-75
2024/04/15 07:10:26;;;;;;;;;2.50;0.00;;;;;11.72;56.19;101400.25;5450545;25;44380;-72
2024/04/15 07:12:51;;;;;;;;;2.50;1.00;;;;;11.76;56.62;101404.25;5450911;25;46875;-72
2024/04/15 07:15:17;;;;;;;;;1.00;0.00;;;;;11.77;56.94;101395.28;5439725;26;63638;-74
2024/04/15 07:17:43;;;;;;;;;0.50;0.50;;;;;11.82;56.01;101391.06;5448665;26;44050;-75
2024/04/15 07:20:08;;;;;;;;;1.00;0.00;;;;;11.88;56.73;101378.09;5451446;26;44757;-73
2024/04/15 07:22:33;;;;;;;;;1.00;0.00;;;;;11.91;55.46;101372.41;5445066;26;48824;-72
2024/04/15 07:25:02;;;;;;;;;0.00;0.00;;;;;12.02;56.67;101380.00;5451448;26;46043;-73
2024/04/15 07:27:34;;;;;;;;;1.00;0.75;;;;;12.06;55.88;101370.66;5450616;25;43966;-75
2024/04/15 07:30:00;;;;;;;;;0.00;0.00;;;;;12.07;56.55;101353.72;5445869;26;43975;-74
2024/04/15 07:32:25;;;;;;;;;2.00;0.00;;;;;12.21;56.33;101373.38;5450611;25;44251;-72
2024/04/15 07:34:50;;;;;;;;;0.25;0.25;;;;;12.28;55.78;101370.00;5451245;25;44001;-70
2024/04/15 07:37:16;;;;;;;;;2.25;0.00;;;;;12.35;55.35;101361.13;5444673;26;62352;-70
2024/04/15 07:39:41;;;;;;;;;0.00;0.00;;;;;12.42;54.02;101366.53;5447999;25;66666;-72
2024/04/15 07:42:07;;;;;;;;;1.25;0.00;;;;;12.48;54.30;101357.00;5452190;26;44782;-68
2024/04/15 07:44:33;;;;;;;;;1.00;0.00;;;;;12.50;54.28;101358.50;5408914;26;45850;-72
2024/04/15 07:46:58;;;;;;;;;2.00;1.00;;;;;12.58;54.43;101362.06;5438782;25;44832;-73
2024/04/15 07:49:23;;;;;;;;;10.00;5.50;;;;;12.58;54.18;101346.91;5446514;25;44481;-68
2024/04/15 07:51:49;;;;;;;;;3.25;0.75;;;;;12.73;54.05;101364.72;5443201;26;73410;-71
2024/04/15 07:54:14;;;;;;;;;1.00;0.25;;;;;12.80;53.06;101355.84;5447169;26;44126;-69
2024/04/15 07:56:40;;;;;;;;;3.00;0.00;;;;;12.88;52.52;101362.06;5438476;26;62157;-70
2024/04/15 07:59:05;;;;;;;;;1.50;0.00;;;;;12.90;52.79;101370.69;5446505;25;44648;-68
2024/04/15 08:01:30;;;;;;;;;0.50;0.00;;;;;12.91;52.47;101362.53;5442966;25;45052;-71
2024/04/15 08:03:56;;;;;;;;;2.00;0.25;;;;;12.95;51.59;101361.16;5441299;25;44160;-68
2024/04/15 08:06:22;;;;;;;;;2.25;1.00;;;;;13.01;52.15;101361.41;5433689;26;60476;-70
2024/04/15 08:08:47;;;;;;;;;0.00;0.00;;;;;13.08;51.92;101368.47;5409110;26;44120;-69
2024/04/15 08:11:13;;;;;;;;;0.50;0.00;;;;;13.12;51.31;101350.28;5445802;26;44904;-69
2024/04/15 08:13:38;;;;;;;;;0.00;0.00;;;;;13.22;51.36;101345.50;5440114;25;48425;-72
2024/04/15 08:16:04;;;;;;;;;1.25;0.00;;;;;13.32;50.95;101347.88;5443768;25;64881;-70
2024/04/15 08:18:29;;;;;;;;;0.75;0.00;;;;;13.43;51.04;101337.78;5432876;26;44170;-69
2024/04/15 08:20:55;;;;;;;;;2.50;0.00;;;;;13.50;49.57;101347.47;5448472;25;53705;-70
2024/04/15 08:23:20;;;;;;;;;0.50;0.50;;;;;13.55;49.85;101333.59;5441617;25;44453;-70
2024/04/15 08:25:55;;;;;;;;;1.00;1.00;;;;;13.62;50.91;101338.97;5442638;25;62477;-70
2024/04/15 08:28:21;;;;;;;;;0.25;0.00;;;;;13.67;50.27;101333.91;5435169;26;44011;-70
2024/04/15 08:30:46;;;;;;;;;0.00;0.00;;;;;13.75;50.23;101327.63;5442189;26;50883;-68
2024/04/15 08:33:13;;;;;;;;;1.00;0.00;;;;;13.81;50.15;101314.38;5441001;25;66235;-68
2024/04/15 08:35:38;;;;;;;;;0.25;0.00;;;;;13.87;50.25;101319.94;5438771;26;44426;-68
2024/04/15 08:38:04;;;;;;;;;1.25;0.00;;;;;13.83;49.68;101325.66;5434396;26;44109;-68
2024/04/15 08:40:29;;;;;;;;;1.50;0.00;;;;;13.81;50.44;101310.88;5435223;26;72436;-70
2024/04/15 08:42:54;;;;;;;;;12.75;8.25;;;;;13.82;50.20;101313.34;5442544;26;44154;-70
2024/04/15 08:45:21;;;;;;;;;0.75;0.00;;;;;13.81;49.83;101327.69;5412488;26;55881;-69
2024/04/15 08:47:51;;;;;;;;;1.00;0.00;;;;;13.75;49.45;101312.47;5439611;25;44181;-69
2024/04/15 08:50:17;;;;;;;;;1.50;0.00;;;;;13.73;49.94;101311.84;5441377;26;44849;-71
2024/04/15 08:52:42;;;;;;;;;2.00;0.00;;;;;13.79;49.99;101311.06;5447067;25;44377;-69
2024/04/15 08:55:10;;;;;;;;;3.50;0.00;;;;;13.86;49.86;101300.44;5444591;26;67002;-69
2024/04/15 08:57:36;;;;;;;;;0.00;0.00;;;;;13.90;49.46;101285.72;5409512;26;44847;-71
2024/04/15 09:00:01;;;;;;;;;1.00;1.00;;;;;13.90;49.37;101288.38;5415501;26;44625;-72
2024/04/15 09:02:26;;;;;;;;;0.50;0.25;;;;;13.91;49.36;101290.03;5417906;26;63994;-72
2024/04/15 09:04:52;;;;;;;;;0.50;0.00;;;;;13.85;49.27;101293.47;5412222;26;63820;-72
2024/04/15 09:07:17;;;;;;;;;3.00;0.50;;;;;13.79;48.98;101286.25;5444544;26;67078;-75
2024/04/15 09:09:42;;;;;;;;;2.00;1.00;;;;;13.75;49.17;101303.63;5449970;25;68486;-70
2024/04/15 09:12:08;;;;;;;;;1.00;0.00;;;;;13.67;48.71;101289.44;5445238;25;52709;-74
2024/04/15 09:14:33;;;;;;;;;1.25;1.00;;;;;13.60;49.41;101277.06;5445223;25;59554;-70
2024/04/15 09:17:00;;;;;;;;;1.50;0.00;;;;;13.58;49.14;101268.44;5445768;26;56585;-71
2024/04/15 09:19:26;;;;;;;;;3.50;1.00;;;;;13.77;49.44;101278.47;5442098;26;45377;-70
2024/04/15 09:21:51;;;;;;;;;1.75;0.00;;;;;13.83;48.97;101259.03;5450653;25;44434;-70
2024/04/15 09:24:17;;;;;;;;;5.00;0.00;;;;;13.94;49.69;101254.19;5473985;25;44563;-71
2024/04/15 09:26:45;;;;;;;;;0.00;0.00;;;;;14.12;49.06;101248.38;5444359;26;44248;-71
2024/04/15 09:29:11;;;;;;;;;0.00;0.00;;;;;14.27;48.56;101242.91;5443938;25;45002;-71
2024/04/15 09:31:37;;;;;;;;;1.25;0.00;;;;;14.43;48.53;101247.09;5445893;25;44991;-72
2024/04/15 09:34:02;;;;;;;;;5.00;4.25;;;;;14.62;48.05;101247.38;5450430;25;44083;-69
2024/04/15 09:36:29;;;;;;;;;2.25;0.75;;;;;14.78;47.27;101236.41;5443070;25;70271;-70
2024/04/15 09:38:54;;;;;;;;;4.50;3.00;;;;;14.89;47.42;101224.31;5447046;25;44190;-69
2024/04/15 09:41:20;;;;;;;;;2.25;1.25;;;;;14.99;46.94;101222.06;5443870;26;68222;-70
2024/04/15 09:43:48;;;;;;;;;2.00;1.25;;;;;15.02;47.29;101208.31;5446851;26;58121;-70
2024/04/15 09:46:13;;;;;;;;;2.25;1.00;;;;;15.12;46.78;101191.06;5441782;26;43975;-73
2024/04/15 09:48:39;;;;;;;;;1.50;0.75;;;;;15.21;46.51;101203.22;5442398;26;69810;-69
2024/04/15 09:51:08;;;;;;;;;0.50;0.00;;;;;15.32;46.79;101204.47;5440843;25;44378;-71
2024/04/15 09:53:38;;;;;;;;;2.00;0.00;;;;;15.37;46.30;101199.31;5441771;26;44134;-69
2024/04/15 09:56:05;;;;;;;;;0.00;0.00;;;;;15.48;46.01;101205.06;5382044;26;44562;-69
2024/04/15 09:58:31;;;;;;;;;0.00;0.00;;;;;15.56;45.94;101195.00;5411400;26;44067;-70
2024/04/15 10:00:59;;;;;;;;;1.75;0.00;;;;;15.62;45.31;101181.84;5441719;26;44143;-70
2024/04/15 10:03:24;;;;;;;;;0.00;0.00;;;;;15.74;45.64;101173.00;5442938;25;44514;-69
2024/04/15 10:05:55;;;;;;;;;3.00;0.00;;;;;15.84;44.36;101148.50;5415780;26;58577;-71
2024/04/15 10:08:21;;;;;;;;;0.00;0.00;;;;;15.87;44.86;101137.41;5447464;26;45062;-74
2024/04/15 10:10:46;;;;;;;;;0.00;0.00;;;;;15.98;44.75;101140.50;5449485;25;67794;-70
2024/04/15 10:13:11;;;;;;;;;1.00;0.00;;;;;15.99;45.40;101134.91;5442806;26;62641;-69
2024/04/15 10:15:37;;;;;;;;;1.50;1.00;;;;;16.15;44.12;101124.78;5414984;26;66155;-71
2024/04/15 10:18:11;;;;;;;;;0.75;0.00;;;;;16.24;43.31;101087.91;5414505;26;54630;-71
2024/04/15 10:20:41;;;;;;;;;1.00;0.00;;;;;16.33;43.49;101083.94;5439804;26;44153;-70
2024/04/15 10:23:08;;;;;;;;;0.00;0.00;;;;;16.52;44.64;101102.78;5443688;26;44135;-72
2024/04/15 10:25:36;;;;;;;;;0.00;0.00;;;;;16.69;43.02;101111.97;5448021;25;44339;-70
2024/04/15 10:28:04;;;;;;;;;0.00;0.00;;;;;16.78;43.35;101091.06;5445077;25;44007;-71
2024/04/15 10:30:31;;;;;;;;;0.00;0.00;;;;;16.99;43.41;101107.84;5445100;25;44516;-70
2024/04/15 10:33:04;;;;;;;;;3.00;0.00;;;;;17.13;42.70;101105.88;5446217;25;43940;-70
2024/04/15 10:35:32;;;;;;;;;1.00;1.00;;;;;17.15;41.78;101075.16;5434895;26;44259;-70
2024/04/15 10:37:58;;;;;;;;;5.25;4.75;;;;;17.24;42.50;101073.00;5445773;25;44804;-66
2024/04/15 10:40:28;;;;;;;;;2.00;1.00;;;;;17.20;43.06;101082.53;5448158;25;43911;-69
2024/04/15 10:42:54;;;;;;;;;1.00;1.00;;;;;17.22;41.91;101050.97;5441507;26;44498;-69
2024/04/15 10:45:20;;;;;;;;;1.00;1.00;;;;;17.32;42.04;101045.91;5440902;25;71023;-69
2024/04/15 10:47:46;;;;;;;;;1.00;1.00;;;;;17.40;42.93;101052.03;5443548;26;45254;-72
2024/04/15 10:50:12;;;;;;;;;0.50;0.50;;;;;17.31;41.62;101046.97;5444135;25;44189;-72
2024/04/15 10:52:37;;;;;;;;;0.00;0.00;;;;;17.08;39.99;101062.88;5448461;26;44246;-69
2024/04/15 10:55:03;;;;;;;;;0.00;0.00;;;;;16.81;41.93;101037.09;5444302;25;57865;-72
2024/04/15 10:57:28;;;;;;;;;0.00;0.00;;;;;16.55;43.02;101025.56;5442996;25;46103;-72
2024/04/15 10:59:54;;;;;;;;;1.25;1.00;;;;;16.41;43.23;101021.34;5414359;26;61581;-74
2024/04/15 11:02:19;;;;;;;;;0.50;0.50;;;;;16.30;42.32;101025.53;5441619;25;58878;-71
2024/04/15 11:04:48;;;;;;;;;0.00;0.00;;;;;16.11;43.18;101006.72;5439945;25;43988;-73
2024/04/15 11:07:17;;;;;;;;;1.50;1.00;;;;;15.99;43.29;101017.25;5442542;25;44918;-70
2024/04/15 11:09:42;;;;;;;;;0.75;0.75;;;;;15.80;43.37;101016.28;5445937;25;44702;-72
2024/04/15 11:12:08;;;;;;;;;0.50;0.00;;;;;15.77;43.92;101006.00;5448112;25;44228;-72
2024/04/15 11:14:34;;;;;;;;;0.50;0.00;;;;;15.59;43.94;101009.41;5444697;25;44050;-72
2024/04/15 11:17:00;;;;;;;;;0.00;0.00;;;;;15.39;44.36;100999.56;5446295;25;44055;-70